createdAt,value
2019-01-23T00:02:44.213Z,68.20
2019-01-23T00:05:44.808Z,68.20
2019-01-23T00:08:45.382Z,68.80
2019-01-23T00:11:45.981Z,68.30
2019-01-23T00:14:46.527Z,68.40
2019-01-23T00:17:49.211Z,68.30
2019-01-23T00:20:49.894Z,68.30
2019-01-23T00:23:50.523Z,68.30
2019-01-23T00:26:51.145Z,68.30
2019-01-23T00:29:51.888Z,68.40
2019-01-23T00:32:52.576Z,68.40
2019-01-23T00:35:53.258Z,69.10
2019-01-23T00:38:53.819Z,68.40
2019-01-23T00:41:55.833Z,68.40
2019-01-23T00:44:58.440Z,68.30
2019-01-23T00:48:00.300Z,68.40
2019-01-23T00:51:01.050Z,68.30
2019-01-23T00:54:01.680Z,68.30
2019-01-23T00:57:02.262Z,68.40
2019-01-23T01:00:02.861Z,68.40
2019-01-23T01:03:05.998Z,68.40
2019-01-23T01:06:06.559Z,68.50
2019-01-23T01:09:10.521Z,69.20
2019-01-23T01:12:13.992Z,68.50
2019-01-23T01:15:15.109Z,68.50
2019-01-23T01:18:15.670Z,68.50
2019-01-23T01:21:16.307Z,68.50
2019-01-23T01:24:16.885Z,68.60
2019-01-23T01:27:17.686Z,68.60
2019-01-23T01:30:23.065Z,68.60
2019-01-23T01:33:23.619Z,68.60
2019-01-23T01:36:25.947Z,68.70
2019-01-23T01:39:26.491Z,68.60
2019-01-23T01:42:27.120Z,68.70
2019-01-23T01:45:27.693Z,68.70
2019-01-23T01:48:28.531Z,69.40
2019-01-23T01:51:29.162Z,68.70
2019-01-23T01:54:29.773Z,68.70
2019-01-23T01:57:32.203Z,68.80
2019-01-23T02:00:32.743Z,68.70
2019-01-23T02:03:33.298Z,68.70
2019-01-23T02:06:34.295Z,68.70
2019-01-23T02:09:35.578Z,68.80
2019-01-23T02:12:36.386Z,68.80
2019-01-23T02:15:36.923Z,68.90
2019-01-23T02:18:37.481Z,68.90
2019-01-23T02:21:38.402Z,68.90
2019-01-23T02:24:39.063Z,68.90
2019-01-23T02:27:39.876Z,68.90
2019-01-23T02:30:40.999Z,68.90
2019-01-23T02:33:41.866Z,68.90
2019-01-23T02:36:44.213Z,68.90
2019-01-23T02:39:44.980Z,68.90
2019-01-23T02:42:46.005Z,68.90
2019-01-23T02:45:46.636Z,69.00
2019-01-23T02:48:47.230Z,69.00
2019-01-23T02:51:48.949Z,68.90
2019-01-23T02:54:49.498Z,68.90
2019-01-23T02:57:50.277Z,69.00
2019-01-23T03:00:50.840Z,69.00
2019-01-23T03:03:51.438Z,69.10
2019-01-23T03:06:54.536Z,69.10
2019-01-23T03:09:55.137Z,69.80
2019-01-23T03:12:59.162Z,69.10
2019-01-23T03:15:59.771Z,69.10
2019-01-23T03:19:00.341Z,69.80
2019-01-23T03:22:00.936Z,69.10
2019-01-23T03:25:01.494Z,69.10
2019-01-23T03:28:02.210Z,69.10
2019-01-23T03:31:02.887Z,69.10
2019-01-23T03:34:04.175Z,69.10
2019-01-23T03:37:04.861Z,69.00
2019-01-23T03:40:08.542Z,69.00
2019-01-23T03:43:10.374Z,69.10
2019-01-23T03:46:10.929Z,69.20
2019-01-23T03:49:13.247Z,69.00
2019-01-23T03:52:15.840Z,69.10
2019-01-23T03:55:17.903Z,69.10
2019-01-23T03:58:18.434Z,69.00
2019-01-23T04:01:21.824Z,69.10
2019-01-23T04:04:22.397Z,69.20
2019-01-23T04:07:23.007Z,69.20
2019-01-23T04:10:26.855Z,69.20
2019-01-23T04:13:27.421Z,69.80
2019-01-23T04:16:29.567Z,69.20
2019-01-23T04:19:30.231Z,69.90
2019-01-23T04:22:31.997Z,69.30
2019-01-23T04:25:32.536Z,69.30
2019-01-23T04:28:33.502Z,69.20
2019-01-23T04:31:34.086Z,69.30
2019-01-23T04:34:37.495Z,69.20
2019-01-23T04:37:43.046Z,69.30
2019-01-23T04:40:44.029Z,69.20
2019-01-23T04:43:47.528Z,69.30
2019-01-23T04:46:48.255Z,69.20
2019-01-23T04:49:48.999Z,69.20
2019-01-23T04:53:14.865Z,69.20
2019-01-23T04:56:15.428Z,69.30
2019-01-23T04:59:18.703Z,69.40
2019-01-23T05:02:19.279Z,69.30
2019-01-23T05:05:19.830Z,69.30
2019-01-23T05:08:27.923Z,69.40
2019-01-23T05:11:28.449Z,69.30
2019-01-23T05:14:29.011Z,69.40
2019-01-23T05:17:29.535Z,69.40
2019-01-23T05:20:30.371Z,69.30
2019-01-23T05:23:31.149Z,69.30
2019-01-23T05:26:31.783Z,69.20
2019-01-23T05:29:32.361Z,69.20
2019-01-23T05:32:33.091Z,69.20
2019-01-23T05:35:33.737Z,69.20
2019-01-23T05:38:34.274Z,69.20
2019-01-23T05:41:34.983Z,70.00
2019-01-23T05:44:38.164Z,69.20
2019-01-23T05:47:39.822Z,69.20
2019-01-23T05:50:47.579Z,69.20
2019-01-23T05:53:50.126Z,69.10
2019-01-23T05:56:50.412Z,69.30
2019-01-23T05:59:50.994Z,69.20
2019-01-23T06:02:51.601Z,69.20
2019-01-23T06:05:53.772Z,69.20
2019-01-23T06:08:54.387Z,69.20
2019-01-23T06:11:54.933Z,69.20
2019-01-23T06:14:57.139Z,69.20
2019-01-23T06:17:57.687Z,69.20
2019-01-23T06:20:58.619Z,69.30
2019-01-23T06:23:59.474Z,69.30
2019-01-23T06:27:02.189Z,69.30
2019-01-23T06:30:09.868Z,69.30
2019-01-23T06:33:04.835Z,69.30
2019-01-23T06:36:05.791Z,69.30
2019-01-23T06:39:10.390Z,69.30
2019-01-23T06:42:11.021Z,70.00
2019-01-23T06:45:17.267Z,70.00
2019-01-23T06:48:18.089Z,69.30
2019-01-23T06:51:23.838Z,69.30
2019-01-23T06:54:25.888Z,69.20
2019-01-23T06:57:26.443Z,69.50
2019-01-23T07:00:27.279Z,69.40
2019-01-23T07:03:27.964Z,69.40
2019-01-23T07:06:30.385Z,69.40
2019-01-23T07:09:31.050Z,69.40
2019-01-23T07:12:31.682Z,69.40
2019-01-23T07:15:33.557Z,69.40
2019-01-23T07:18:34.357Z,69.20
2019-01-23T07:21:37.787Z,69.70
2019-01-23T07:24:38.465Z,69.90
2019-01-23T07:27:39.054Z,69.80
2019-01-23T07:30:42.278Z,69.60
2019-01-23T07:33:43.255Z,69.70
2019-01-23T07:36:43.828Z,69.70
2019-01-23T07:39:47.385Z,69.90
2019-01-23T07:42:48.421Z,69.70
2019-01-23T07:45:49.114Z,69.80
2019-01-23T07:48:49.764Z,69.80
2019-01-23T07:51:50.516Z,69.80
2019-01-23T07:54:53.811Z,69.70
2019-01-23T07:57:54.519Z,69.70
2019-01-23T08:00:55.158Z,69.80
2019-01-23T08:03:55.950Z,69.80
2019-01-23T08:06:56.736Z,70.30
2019-01-23T08:10:00.447Z,70.20
2019-01-23T08:13:01.031Z,70.20
2019-01-23T08:16:01.687Z,70.60
2019-01-23T08:19:02.339Z,70.70
2019-01-23T08:22:02.928Z,70.60
2019-01-23T08:25:03.790Z,70.50
2019-01-23T08:28:04.888Z,70.40
2019-01-23T08:31:05.680Z,70.40
2019-01-23T08:34:06.620Z,70.40
2019-01-23T08:37:11.046Z,70.40
2019-01-23T08:40:13.287Z,70.40
2019-01-23T08:43:13.924Z,70.30
2019-01-23T08:46:14.616Z,70.30
2019-01-23T08:49:15.754Z,70.20
2019-01-23T08:52:17.047Z,70.30
2019-01-23T08:55:17.694Z,70.30
2019-01-23T08:58:20.463Z,70.30
2019-01-23T09:01:21.182Z,70.30
2019-01-23T09:04:21.806Z,70.30
2019-01-23T09:07:22.436Z,70.30
2019-01-23T09:10:23.844Z,70.30
2019-01-23T09:13:24.665Z,70.20
2019-01-23T09:16:25.267Z,70.20
2019-01-23T09:19:25.897Z,70.30
2019-01-23T09:22:29.218Z,70.30
2019-01-23T09:25:29.946Z,70.50
2019-01-23T09:28:30.830Z,70.60
2019-01-23T09:32:05.743Z,70.80
2019-01-23T09:35:48.220Z,70.70
2019-01-23T09:39:20.441Z,70.90
2019-01-23T09:43:08.759Z,71.00
2019-01-23T09:46:58.971Z,70.80
2019-01-23T09:50:27.806Z,70.90
2019-01-23T09:53:39.639Z,71.00
2019-01-23T09:56:45.019Z,70.80
2019-01-23T09:59:45.628Z,70.90
2019-01-23T10:02:46.319Z,70.90
2019-01-23T10:05:47.298Z,70.80
2019-01-23T10:08:48.006Z,70.80
2019-01-23T10:11:48.590Z,70.80
2019-01-23T10:14:49.559Z,70.70
2019-01-23T10:17:51.339Z,70.90
2019-01-23T10:20:51.918Z,70.80
2019-01-23T10:23:52.713Z,70.80
2019-01-23T10:26:53.316Z,70.80
2019-01-23T10:29:53.910Z,70.80
2019-01-23T10:32:54.543Z,70.90
2019-01-23T10:35:55.314Z,70.90
2019-01-23T10:38:56.003Z,70.90
2019-01-23T10:41:56.807Z,70.70
2019-01-23T10:44:57.736Z,70.60
2019-01-23T10:47:58.396Z,70.50
2019-01-23T10:50:59.050Z,70.60
2019-01-23T10:53:59.828Z,70.40
2019-01-23T10:57:00.462Z,70.30
2019-01-23T11:00:01.051Z,70.10
2019-01-23T11:03:02.089Z,70.20
2019-01-23T11:06:04.007Z,70.00
2019-01-23T11:09:07.061Z,70.10
2019-01-23T11:12:07.836Z,70.00
2019-01-23T11:15:11.026Z,70.00
2019-01-23T11:18:11.731Z,69.90
2019-01-23T11:21:12.390Z,69.80
2019-01-23T11:24:13.232Z,69.90
2019-01-23T11:27:13.790Z,69.90
2019-01-23T11:30:17.983Z,69.80
2019-01-23T11:33:18.640Z,69.80
2019-01-23T11:36:19.280Z,69.90
2019-01-23T11:39:20.209Z,70.10
2019-01-23T11:42:22.400Z,70.20
2019-01-23T11:45:23.114Z,70.10
2019-01-23T11:48:25.666Z,70.10
2019-01-23T11:51:27.434Z,69.90
2019-01-23T11:54:28.405Z,70.20
2019-01-23T11:57:29.161Z,70.20
2019-01-23T12:00:32.901Z,70.10
2019-01-23T12:03:33.568Z,69.90
2019-01-23T12:06:34.242Z,69.80
2019-01-23T12:09:34.838Z,69.70
2019-01-23T12:12:35.671Z,70.00
2019-01-23T12:15:40.793Z,69.90
2019-01-23T12:18:38.598Z,70.00
2019-01-23T12:21:39.307Z,70.10
2019-01-23T12:24:40.066Z,70.00
2019-01-23T12:27:40.761Z,70.20
2019-01-23T12:30:41.447Z,70.20
2019-01-23T12:33:42.340Z,70.10
2019-01-23T12:36:42.961Z,70.10
2019-01-23T12:39:43.543Z,70.00
2019-01-23T12:42:43.218Z,70.10
2019-01-23T12:45:41.072Z,70.10
2019-01-23T12:48:39.148Z,70.30
2019-01-23T12:51:39.731Z,70.40
2019-01-23T12:54:37.550Z,70.40
2019-01-23T12:57:35.587Z,70.30
2019-01-23T13:00:34.760Z,70.30
2019-01-23T13:03:32.711Z,70.20
2019-01-23T13:06:33.488Z,70.20
2019-01-23T13:09:31.440Z,70.20
2019-01-23T13:12:29.279Z,70.20
2019-01-23T13:15:28.913Z,70.30
2019-01-23T13:18:26.681Z,70.40
2019-01-23T13:21:27.053Z,70.40
2019-01-23T13:24:24.954Z,70.50
2019-01-23T13:27:22.978Z,70.40
2019-01-23T13:30:22.890Z,70.30
2019-01-23T13:33:23.631Z,70.30
2019-01-23T13:36:22.852Z,70.40
2019-01-23T13:39:21.174Z,70.30
2019-01-23T13:42:21.586Z,70.30
2019-01-23T13:45:19.575Z,70.30
2019-01-23T13:48:17.362Z,70.20
2019-01-23T13:51:15.336Z,70.10
2019-01-23T13:54:13.240Z,70.20
2019-01-23T13:57:11.575Z,70.10
2019-01-23T14:00:47.360Z,69.90
2019-01-23T14:03:45.292Z,69.90
2019-01-23T14:06:43.612Z,69.80
2019-01-23T14:09:41.300Z,69.90
2019-01-23T14:12:39.203Z,69.80
2019-01-23T14:15:38.082Z,69.80
2019-01-23T14:18:35.865Z,69.70
2019-01-23T14:21:35.946Z,69.70
2019-01-23T14:24:34.620Z,69.80
2019-01-23T14:27:32.457Z,69.60
2019-01-23T14:30:33.194Z,69.50
2019-01-23T14:33:31.138Z,69.50
2019-01-23T14:36:28.968Z,69.50
2019-01-23T14:39:27.099Z,69.50
2019-01-23T14:42:24.966Z,69.40
2019-01-23T14:45:23.056Z,69.60
2019-01-23T14:48:25.878Z,69.50
2019-01-23T14:51:23.967Z,69.50
2019-01-23T14:54:22.135Z,69.50
2019-01-23T14:57:19.992Z,69.40
2019-01-23T15:00:20.011Z,69.40
2019-01-23T15:03:17.955Z,69.40
2019-01-23T15:06:18.612Z,69.30
2019-01-23T15:09:16.502Z,69.40
2019-01-23T15:12:14.510Z,69.50
2019-01-23T15:15:12.979Z,69.30
2019-01-23T15:18:11.168Z,69.30
2019-01-23T15:21:10.955Z,69.50
2019-01-23T15:24:11.871Z,69.40
2019-01-23T15:27:09.859Z,69.60
2019-01-23T15:30:10.783Z,69.50
2019-01-23T15:33:08.899Z,69.60
2019-01-23T15:36:06.656Z,69.60
2019-01-23T15:39:07.519Z,69.60
2019-01-23T15:42:07.121Z,69.60
2019-01-23T15:45:07.380Z,69.70
2019-01-23T15:48:05.280Z,69.80
2019-01-23T15:51:05.497Z,69.70
2019-01-23T15:54:05.696Z,69.60
2019-01-23T15:57:03.432Z,69.70
2019-01-23T16:00:01.592Z,69.90
2019-01-23T16:02:59.400Z,69.80
2019-01-23T16:05:58.581Z,69.80
2019-01-23T16:08:56.622Z,69.80
2019-01-23T16:11:54.375Z,69.90
2019-01-23T16:14:53.431Z,70.00
2019-01-23T16:17:51.488Z,69.70
2019-01-23T16:20:50.486Z,69.70
2019-01-23T16:23:48.456Z,69.70
2019-01-23T16:26:46.503Z,69.60
2019-01-23T16:29:44.606Z,69.50
2019-01-23T16:32:42.511Z,69.50
2019-01-23T16:35:40.453Z,69.40
2019-01-23T16:38:38.595Z,69.40
2019-01-23T16:41:36.411Z,69.40
2019-01-23T16:44:36.543Z,69.40
2019-01-23T16:47:40.218Z,68.80
2019-01-23T16:50:39.593Z,69.30
2019-01-23T16:53:37.468Z,69.20
2019-01-23T16:56:35.571Z,69.00
2019-01-23T16:59:33.706Z,69.10
2019-01-23T17:02:38.498Z,69.10
2019-01-23T17:05:34.544Z,69.10
2019-01-23T17:08:32.552Z,69.00
2019-01-23T17:11:32.489Z,69.00
2019-01-23T17:14:31.465Z,69.00
2019-01-23T17:17:29.474Z,69.00
2019-01-23T17:20:39.767Z,69.00
2019-01-23T17:23:37.828Z,68.90
2019-01-23T17:26:36.074Z,69.20
2019-01-23T17:29:35.337Z,69.00
2019-01-23T17:32:33.268Z,69.10
2019-01-23T17:35:31.174Z,69.50
2019-01-23T17:38:29.123Z,69.60
2019-01-23T17:41:31.725Z,69.80
2019-01-23T17:44:29.839Z,69.80
2019-01-23T17:47:27.752Z,69.90
2019-01-23T17:50:26.295Z,69.80
2019-01-23T17:53:24.402Z,69.80
2019-01-23T17:56:22.330Z,69.90
2019-01-23T17:59:20.387Z,69.80
2019-01-23T18:02:18.305Z,69.90
2019-01-23T18:05:16.311Z,70.00
2019-01-23T18:08:14.261Z,70.00
2019-01-23T18:11:12.171Z,70.00
2019-01-23T18:14:11.830Z,69.90
2019-01-23T18:17:09.638Z,69.90
2019-01-23T18:20:10.864Z,69.90
2019-01-23T18:23:11.797Z,69.90
2019-01-23T18:26:12.347Z,69.80
2019-01-23T18:29:10.257Z,69.80
2019-01-23T18:32:09.202Z,69.80
2019-01-23T18:35:48.460Z,69.70
2019-01-23T18:39:30.796Z,69.70
2019-01-23T18:43:22.261Z,69.70
2019-01-23T18:46:59.997Z,70.40
2019-01-23T18:50:23.476Z,69.50
2019-01-23T18:53:21.488Z,69.60
2019-01-23T18:56:19.462Z,69.50
2019-01-23T18:59:17.422Z,69.60
2019-01-23T19:02:15.409Z,69.50
2019-01-23T19:05:17.819Z,69.50
2019-01-23T19:08:16.498Z,69.60
2019-01-23T19:11:14.609Z,69.50
2019-01-23T19:14:13.066Z,69.60
2019-01-23T19:17:13.786Z,69.50
2019-01-23T19:20:14.866Z,69.60
2019-01-23T19:23:13.212Z,69.50
2019-01-23T19:26:14.219Z,69.60
2019-01-23T19:29:12.525Z,69.50
2019-01-23T19:32:10.484Z,69.60
2019-01-23T19:35:08.527Z,69.70
2019-01-23T19:38:06.746Z,69.40
2019-01-23T19:41:05.086Z,69.60
2019-01-23T19:44:05.266Z,69.60
2019-01-23T19:47:03.337Z,69.70
2019-01-23T19:50:01.333Z,69.70
2019-01-23T19:52:59.751Z,69.70
2019-01-23T19:55:57.849Z,69.50
2019-01-23T19:58:57.224Z,69.60
2019-01-23T20:01:55.152Z,69.70
2019-01-23T20:04:53.078Z,69.60
2019-01-23T20:07:51.563Z,69.60
2019-01-23T20:10:49.873Z,69.70
2019-01-23T20:13:48.147Z,69.80
2019-01-23T20:16:46.302Z,69.70
2019-01-23T20:19:44.297Z,69.80
2019-01-23T20:22:42.747Z,69.70
2019-01-23T20:25:42.142Z,69.70
2019-01-23T20:28:44.567Z,69.70
2019-01-23T20:31:43.216Z,69.80
2019-01-23T20:34:42.527Z,69.80
2019-01-23T20:37:43.574Z,69.70
2019-01-23T20:40:41.945Z,69.80
2019-01-23T20:43:39.872Z,69.80
2019-01-23T20:46:37.788Z,69.90
2019-01-23T20:49:35.763Z,69.80
2019-01-23T20:52:33.691Z,69.80
2019-01-23T20:55:33.832Z,69.80
2019-01-23T20:58:31.740Z,69.80
2019-01-23T21:01:34.222Z,69.70
2019-01-23T21:04:34.102Z,69.80
2019-01-23T21:07:32.148Z,70.30
2019-01-23T21:10:30.213Z,69.90
2019-01-23T21:13:29.165Z,69.90
2019-01-23T21:16:27.390Z,70.00
2019-01-23T21:19:29.803Z,70.10
2019-01-23T21:22:27.591Z,70.10
2019-01-23T21:25:25.505Z,70.10
2019-01-23T21:28:25.600Z,70.30
2019-01-23T21:31:23.590Z,70.30
2019-01-23T21:34:23.247Z,70.30
2019-01-23T21:37:21.031Z,70.30
2019-01-23T21:40:21.235Z,70.40
2019-01-23T21:43:21.376Z,70.40
2019-01-23T21:46:19.379Z,70.40
2019-01-23T21:49:17.266Z,70.40
2019-01-23T21:52:19.284Z,70.30
2019-01-23T21:55:16.642Z,70.40
2019-01-23T21:58:14.491Z,70.50
2019-01-23T22:01:12.313Z,70.40
2019-01-23T22:04:10.664Z,70.50
2019-01-23T22:07:08.759Z,70.40
2019-01-23T22:10:09.885Z,70.60
2019-01-23T22:13:08.261Z,70.50
2019-01-23T22:16:12.720Z,70.40
2019-01-23T22:19:13.459Z,70.60
2019-01-23T22:22:11.272Z,70.60
2019-01-23T22:25:10.733Z,70.50
2019-01-23T22:28:10.797Z,70.60
2019-01-23T22:31:13.563Z,70.50
2019-01-23T22:34:11.584Z,70.60
2019-01-23T22:37:09.556Z,70.50
2019-01-23T22:40:10.296Z,70.50
2019-01-23T22:43:11.261Z,70.60
2019-01-23T22:46:08.011Z,70.70
2019-01-23T22:49:07.181Z,70.70
2019-01-23T22:52:05.267Z,70.60
2019-01-23T22:55:05.203Z,70.70
2019-01-23T22:58:05.896Z,70.70
2019-01-23T23:01:14.710Z,70.50
2019-01-23T23:04:13.051Z,70.60
2019-01-23T23:07:10.804Z,70.60
2019-01-23T23:10:09.939Z,70.60
2019-01-23T23:13:08.016Z,70.60
2019-01-23T23:16:08.697Z,70.60
2019-01-23T23:19:06.523Z,70.70
2019-01-23T23:22:04.359Z,70.60
2019-01-23T23:25:04.422Z,70.60
2019-01-23T23:28:04.984Z,70.70
2019-01-23T23:31:02.914Z,70.70
2019-01-23T23:34:09.795Z,70.70
2019-01-23T23:37:03.490Z,70.50
2019-01-23T23:40:01.619Z,70.80
2019-01-23T23:42:59.451Z,71.10
2019-01-23T23:46:00.110Z,71.00
2019-01-23T23:48:59.755Z,70.90
2019-01-23T23:51:57.592Z,71.00
2019-01-23T23:54:55.382Z,70.90
2019-01-23T23:57:53.114Z,70.90
